createdAt,value
2019-04-05T00:02:27.355Z,99.90
2019-04-05T00:04:57.356Z,99.90
2019-04-05T00:07:27.315Z,99.90
2019-04-05T00:09:56.607Z,99.90
2019-04-05T00:12:25.880Z,99.90
2019-04-05T00:14:55.180Z,99.90
2019-04-05T00:17:25.111Z,99.90
2019-04-05T00:19:54.932Z,99.90
2019-04-05T00:22:24.796Z,99.90
2019-04-05T00:24:54.223Z,99.90
2019-04-05T00:27:23.614Z,99.90
2019-04-05T00:29:52.902Z,99.90
2019-04-05T00:32:22.453Z,99.90
2019-04-05T00:34:52.082Z,99.90
2019-04-05T00:37:21.347Z,99.90
2019-04-05T00:39:50.607Z,99.90
2019-04-05T00:42:20.367Z,99.90
2019-04-05T00:44:49.578Z,99.90
2019-04-05T00:47:18.965Z,99.90
2019-04-05T00:49:48.273Z,99.90
2019-04-05T00:52:17.576Z,99.90
2019-04-05T00:54:46.819Z,99.90
2019-04-05T00:57:16.197Z,99.90
2019-04-05T00:59:45.470Z,99.90
2019-04-05T01:02:15.030Z,99.90
2019-04-05T01:04:44.265Z,99.90
2019-04-05T01:07:13.708Z,99.90
2019-04-05T01:09:42.995Z,99.90
2019-04-05T01:12:13.093Z,99.90
2019-04-05T01:14:43.135Z,99.90
2019-04-05T01:17:24.198Z,99.90
2019-04-05T01:19:46.265Z,99.90
2019-04-05T01:22:17.061Z,99.90
2019-04-05T01:24:46.348Z,99.90
2019-04-05T01:27:15.654Z,99.90
2019-04-05T01:29:45.808Z,99.90
2019-04-05T01:32:15.442Z,99.90
2019-04-05T01:34:45.114Z,99.90
2019-04-05T01:37:14.384Z,99.90
2019-04-05T01:39:43.799Z,99.90
2019-04-05T01:42:13.090Z,99.90
2019-04-05T01:44:42.848Z,99.90
2019-04-05T01:47:12.113Z,99.90
2019-04-05T01:49:41.412Z,99.90
2019-04-05T01:52:10.692Z,99.90
2019-04-05T01:54:39.961Z,99.90
2019-04-05T01:57:09.273Z,99.90
2019-04-05T01:59:38.556Z,99.90
2019-04-05T02:02:07.812Z,99.90
2019-04-05T02:04:37.151Z,99.90
2019-04-05T02:07:06.514Z,99.90
2019-04-05T02:09:36.776Z,99.90
2019-04-05T02:12:06.068Z,99.90
2019-04-05T02:14:35.645Z,99.90
2019-04-05T02:17:05.010Z,99.90
2019-04-05T02:19:34.336Z,99.90
2019-04-05T02:22:03.605Z,99.90
2019-04-05T02:24:32.853Z,99.90
2019-04-05T02:27:02.155Z,99.90
2019-04-05T02:29:32.379Z,99.90
2019-04-05T02:32:01.741Z,99.90
2019-04-05T02:34:31.439Z,99.90
2019-04-05T02:37:00.704Z,99.90
2019-04-05T02:39:30.105Z,99.90
2019-04-05T02:41:59.937Z,99.90
2019-04-05T02:44:30.914Z,99.90
2019-04-05T02:47:00.882Z,99.90
2019-04-05T02:49:31.962Z,99.90
2019-04-05T02:52:02.809Z,99.90
2019-04-05T02:54:32.731Z,99.90
2019-04-05T02:57:02.659Z,99.90
2019-04-05T02:59:34.701Z,99.90
2019-04-05T03:02:06.320Z,99.90
2019-04-05T03:04:36.081Z,99.90
2019-04-05T03:07:06.063Z,99.90
2019-04-05T03:09:36.127Z,99.90
2019-04-05T03:12:05.663Z,99.90
2019-04-05T03:14:35.233Z,99.90
2019-04-05T03:17:05.037Z,99.90
2019-04-05T03:19:35.593Z,99.90
2019-04-05T03:22:07.637Z,99.90
2019-04-05T03:24:40.139Z,99.90
2019-04-05T03:27:14.177Z,99.90
2019-04-05T03:29:44.199Z,99.90
2019-04-05T03:32:14.456Z,99.90
2019-04-05T03:34:44.971Z,99.90
2019-04-05T03:37:14.807Z,99.90
2019-04-05T03:39:43.969Z,99.90
2019-04-05T03:42:13.209Z,99.90
2019-04-05T03:44:43.191Z,99.90
2019-04-05T03:47:12.739Z,99.90
2019-04-05T03:49:41.910Z,99.90
2019-04-05T03:52:11.306Z,99.90
2019-04-05T03:54:40.796Z,99.90
2019-04-05T03:57:10.013Z,99.90
2019-04-05T03:59:39.713Z,99.90
2019-04-05T04:02:09.019Z,99.90
2019-04-05T04:04:38.934Z,99.90
2019-04-05T04:07:08.125Z,99.90
2019-04-05T04:09:37.922Z,99.90
2019-04-05T04:12:07.140Z,99.90
2019-04-05T04:14:36.839Z,99.90
2019-04-05T04:17:12.871Z,99.90
2019-04-05T04:19:37.863Z,99.90
2019-04-05T04:22:29.952Z,99.90
2019-04-05T04:24:59.893Z,99.90
2019-04-05T04:27:29.878Z,99.90
2019-04-05T04:30:00.409Z,99.90
2019-04-05T04:32:30.776Z,99.90
2019-04-05T04:35:00.125Z,99.90
2019-04-05T04:37:29.685Z,99.90
2019-04-05T04:39:58.840Z,99.90
2019-04-05T04:42:28.257Z,99.90
2019-04-05T04:45:11.371Z,99.90
2019-04-05T04:47:29.699Z,99.90
2019-04-05T04:49:59.540Z,99.90
2019-04-05T04:52:31.437Z,99.90
2019-04-05T04:55:00.954Z,99.90
2019-04-05T04:57:30.561Z,99.90
2019-04-05T05:00:00.193Z,99.90
2019-04-05T05:02:29.741Z,99.90
2019-04-05T05:04:59.468Z,99.90
2019-04-05T05:07:29.373Z,99.90
2019-04-05T05:09:58.811Z,99.90
2019-04-05T05:12:28.144Z,99.90
2019-04-05T05:14:57.895Z,99.90
2019-04-05T05:17:37.708Z,99.90
2019-04-05T05:19:58.778Z,99.90
2019-04-05T05:22:28.230Z,99.90
2019-04-05T05:24:58.194Z,99.90
2019-04-05T05:27:28.071Z,99.90
2019-04-05T05:29:57.432Z,99.90
2019-04-05T05:32:26.884Z,99.90
2019-04-05T05:35:02.180Z,99.90
2019-04-05T05:37:27.723Z,99.90
2019-04-05T05:39:56.889Z,99.90
2019-04-05T05:42:26.114Z,99.90
2019-04-05T05:44:55.362Z,99.90
2019-04-05T05:47:24.676Z,99.90
2019-04-05T05:49:53.822Z,99.90
2019-04-05T05:52:24.073Z,99.90
2019-04-05T05:54:53.266Z,99.90
2019-04-05T05:57:22.410Z,99.90
2019-04-05T05:59:51.666Z,99.90
2019-04-05T06:02:20.897Z,99.90
2019-04-05T06:04:50.031Z,99.90
2019-04-05T06:07:20.216Z,99.90
2019-04-05T06:09:49.736Z,99.90
2019-04-05T06:12:18.945Z,99.90
2019-04-05T06:14:48.115Z,99.90
2019-04-05T06:17:17.266Z,99.90
2019-04-05T06:19:46.488Z,99.90
2019-04-05T06:22:15.668Z,99.90
2019-04-05T06:24:45.016Z,99.90
2019-04-05T06:27:14.260Z,99.90
2019-04-05T06:29:43.499Z,99.90
2019-04-05T06:32:12.707Z,99.90
2019-04-05T06:34:41.869Z,99.90
2019-04-05T06:37:11.111Z,99.90
2019-04-05T06:39:40.270Z,99.90
2019-04-05T06:42:09.436Z,99.90
2019-04-05T06:44:38.611Z,99.90
2019-04-05T06:47:07.747Z,99.90
2019-04-05T06:49:36.915Z,99.90
2019-04-05T06:52:06.161Z,99.90
2019-04-05T06:54:35.300Z,99.90
2019-04-05T06:57:04.462Z,99.90
2019-04-05T06:59:33.695Z,99.90
2019-04-05T07:02:03.006Z,99.90
2019-04-05T07:04:32.226Z,99.90
2019-04-05T07:07:01.481Z,99.90
2019-04-05T07:09:30.610Z,99.90
2019-04-05T07:11:59.763Z,99.90
2019-04-05T07:14:28.952Z,99.90
2019-04-05T07:16:58.093Z,99.90
2019-04-05T07:19:27.333Z,99.90
2019-04-05T07:21:56.571Z,99.90
2019-04-05T07:24:25.742Z,99.90
2019-04-05T07:26:54.887Z,99.90
2019-04-05T07:29:24.308Z,99.90
2019-04-05T07:31:53.472Z,99.90
2019-04-05T07:34:22.615Z,99.90
2019-04-05T07:36:52.436Z,99.90
2019-04-05T07:39:21.718Z,99.90
2019-04-05T07:41:51.122Z,99.90
2019-04-05T07:44:20.657Z,99.90
2019-04-05T07:46:49.807Z,99.90
2019-04-05T07:49:19.104Z,99.90
2019-04-05T07:51:48.290Z,99.90
2019-04-05T07:54:17.446Z,99.90
2019-04-05T07:56:46.598Z,99.90
2019-04-05T07:59:15.779Z,99.90
2019-04-05T08:01:45.119Z,99.90
2019-04-05T08:04:14.424Z,99.90
2019-04-05T08:06:45.954Z,99.90
2019-04-05T08:09:16.286Z,99.90
2019-04-05T08:11:45.675Z,99.90
2019-04-05T08:14:18.049Z,99.90
2019-04-05T08:16:47.504Z,99.90
2019-04-05T08:19:16.644Z,98.70
2019-04-05T08:21:45.802Z,99.20
2019-04-05T08:24:15.081Z,99.30
2019-04-05T08:26:44.358Z,98.40
2019-04-05T08:29:13.551Z,98.80
2019-04-05T08:31:42.859Z,98.10
2019-04-05T08:34:11.993Z,97.50
2019-04-05T08:36:41.244Z,95.90
2019-04-05T08:39:10.553Z,95.40
2019-04-05T08:41:39.922Z,94.90
2019-04-05T08:44:09.196Z,98.60
2019-04-05T08:46:38.411Z,97.50
2019-04-05T08:49:11.040Z,94.30
2019-04-05T08:51:38.625Z,91.40
2019-04-05T08:54:07.850Z,94.70
2019-04-05T08:56:37.005Z,93.80
2019-04-05T08:59:06.199Z,91.90
2019-04-05T09:01:35.333Z,90.30
2019-04-05T09:04:04.751Z,86.70
2019-04-05T09:06:33.924Z,89.40
2019-04-05T09:09:05.024Z,86.30
2019-04-05T09:11:34.187Z,82.30
2019-04-05T09:14:03.401Z,82.30
2019-04-05T09:16:32.626Z,81.90
2019-04-05T09:19:01.785Z,76.70
2019-04-05T09:21:30.963Z,75.90
2019-04-05T09:24:00.114Z,75.80
2019-04-05T09:26:29.263Z,76.80
2019-04-05T09:28:58.583Z,70.50
2019-04-05T09:31:27.794Z,71.50
2019-04-05T09:33:56.969Z,70.10
2019-04-05T09:36:26.284Z,69.40
2019-04-05T09:38:55.658Z,70.20
2019-04-05T09:41:24.891Z,69.50
2019-04-05T09:43:54.094Z,66.80
2019-04-05T09:46:23.257Z,67.90
2019-04-05T09:48:52.646Z,66.70
2019-04-05T09:51:22.007Z,65.10
2019-04-05T09:53:51.158Z,65.80
2019-04-05T09:56:20.339Z,65.90
2019-04-05T09:58:49.693Z,68.50
2019-04-05T10:01:18.867Z,68.10
2019-04-05T10:03:48.114Z,67.90
2019-04-05T10:06:17.371Z,66.30
2019-04-05T10:08:46.741Z,64.70
2019-04-05T10:11:15.932Z,65.40
2019-04-05T10:13:45.112Z,65.30
2019-04-05T10:16:14.299Z,59.10
2019-04-05T10:18:43.506Z,58.40
2019-04-05T10:21:12.971Z,58.20
2019-04-05T10:23:42.125Z,56.80
2019-04-05T10:26:11.674Z,57.60
2019-04-05T10:28:40.916Z,59.90
2019-04-05T10:31:10.054Z,58.60
2019-04-05T10:33:39.212Z,60.70
2019-04-05T10:36:08.469Z,55.50
2019-04-05T10:38:37.606Z,57.40
2019-04-05T10:41:07.078Z,55.50
2019-04-05T10:43:36.336Z,55.80
2019-04-05T10:46:06.399Z,54.10
2019-04-05T10:48:35.686Z,56.70
2019-04-05T10:51:05.378Z,57.60
2019-04-05T10:53:34.696Z,57.10
2019-04-05T10:56:04.168Z,57.80
2019-04-05T10:58:33.419Z,53.80
2019-04-05T11:01:02.825Z,50.00
2019-04-05T11:03:32.200Z,53.10
2019-04-05T11:06:01.449Z,52.00
2019-04-05T11:08:30.791Z,52.40
2019-04-05T11:10:59.962Z,50.30
2019-04-05T11:13:29.163Z,46.90
2019-04-05T11:15:58.393Z,45.20
2019-04-05T11:18:27.701Z,47.70
2019-04-05T11:20:56.949Z,48.10
2019-04-05T11:23:26.100Z,48.20
2019-04-05T11:25:55.296Z,48.10
2019-04-05T11:28:24.571Z,46.30
2019-04-05T11:30:53.902Z,49.50
2019-04-05T11:33:23.292Z,48.80
2019-04-05T11:35:52.473Z,49.20
2019-04-05T11:38:24.242Z,50.00
2019-04-05T11:40:53.983Z,47.80
2019-04-05T11:43:26.909Z,46.10
2019-04-05T11:45:57.214Z,44.30
2019-04-05T11:48:30.059Z,46.30
2019-04-05T11:50:57.658Z,44.70
2019-04-05T11:53:26.828Z,44.10
2019-04-05T11:55:56.134Z,46.20
2019-04-05T11:58:25.387Z,46.10
2019-04-05T12:01:04.466Z,45.30
2019-04-05T12:03:33.898Z,45.10
2019-04-05T12:06:03.164Z,46.90
2019-04-05T12:08:32.407Z,45.20
2019-04-05T12:11:01.720Z,43.40
2019-04-05T12:13:31.075Z,44.20
2019-04-05T12:16:00.331Z,45.70
2019-04-05T12:18:29.757Z,47.50
2019-04-05T12:21:00.642Z,46.00
2019-04-05T12:23:32.601Z,46.10
2019-04-05T12:26:03.785Z,45.60
2019-04-05T12:28:31.640Z,44.50
2019-04-05T12:31:00.785Z,43.50
2019-04-05T12:33:30.050Z,42.50
2019-04-05T12:35:59.286Z,44.60
2019-04-05T12:38:32.966Z,44.40
2019-04-05T12:41:04.935Z,44.80
2019-04-05T12:43:34.485Z,43.80
2019-04-05T12:46:04.802Z,46.60
2019-04-05T12:48:33.981Z,45.20
2019-04-05T12:51:05.512Z,44.30
2019-04-05T12:53:33.998Z,43.50
2019-04-05T12:56:03.905Z,43.30
2019-04-05T12:58:33.131Z,45.90
2019-04-05T13:01:02.275Z,46.10
2019-04-05T13:03:31.474Z,45.20
2019-04-05T13:06:00.687Z,42.80
2019-04-05T13:08:29.904Z,43.70
2019-04-05T13:10:59.094Z,44.90
2019-04-05T13:13:28.331Z,44.20
2019-04-05T13:15:59.303Z,41.40
2019-04-05T13:18:30.723Z,43.60
2019-04-05T13:21:00.231Z,42.50
2019-04-05T13:23:30.182Z,43.80
2019-04-05T13:25:59.442Z,43.00
2019-04-05T13:28:28.580Z,42.20
2019-04-05T13:30:57.732Z,42.00
2019-04-05T13:33:28.968Z,43.30
2019-04-05T13:35:57.787Z,42.40
2019-04-05T13:39:03.973Z,41.30
2019-04-05T13:41:33.176Z,43.40
2019-04-05T13:44:02.549Z,42.50
2019-04-05T13:46:38.239Z,46.50
2019-04-05T13:49:05.373Z,47.40
2019-04-05T13:51:34.534Z,49.20
2019-04-05T13:54:03.717Z,51.00
2019-04-05T13:56:32.943Z,50.00
2019-04-05T13:59:02.100Z,48.70
2019-04-05T14:01:31.369Z,48.80
2019-04-05T14:04:00.531Z,46.30
2019-04-05T14:06:29.750Z,46.60
2019-04-05T14:08:58.975Z,47.50
2019-04-05T14:11:28.212Z,48.60
2019-04-05T14:13:57.377Z,47.50
2019-04-05T14:16:26.566Z,47.90
2019-04-05T14:18:55.780Z,48.10
2019-04-05T14:21:25.360Z,46.70
2019-04-05T14:23:54.563Z,45.60
2019-04-05T14:26:23.782Z,45.40
2019-04-05T14:28:53.203Z,44.00
2019-04-05T14:31:22.582Z,44.20
2019-04-05T14:33:54.198Z,42.10
2019-04-05T14:36:23.577Z,42.10
2019-04-05T14:38:52.927Z,41.90
2019-04-05T14:41:22.170Z,43.00
2019-04-05T14:43:51.514Z,44.40
2019-04-05T14:46:20.760Z,44.70
2019-04-05T14:48:50.004Z,43.00
2019-04-05T14:51:19.233Z,42.60
2019-04-05T14:53:48.505Z,40.20
2019-04-05T14:56:17.883Z,40.20
2019-04-05T14:58:47.032Z,39.00
2019-04-05T15:01:17.563Z,38.20
2019-04-05T15:03:47.212Z,39.70
2019-04-05T15:06:16.460Z,40.50
2019-04-05T15:08:47.908Z,40.70
2019-04-05T15:11:16.509Z,41.60
2019-04-05T15:13:45.729Z,40.80
2019-04-05T15:16:14.896Z,39.50
2019-04-05T15:18:44.112Z,41.60
2019-04-05T15:21:13.270Z,44.00
2019-04-05T15:23:45.409Z,45.80
2019-04-05T15:26:13.407Z,47.40
2019-04-05T15:28:42.606Z,48.90
2019-04-05T15:31:11.783Z,49.30
2019-04-05T15:33:40.923Z,48.60
2019-04-05T15:36:10.076Z,50.10
2019-04-05T15:38:39.242Z,51.80
2019-04-05T15:41:08.408Z,50.70
2019-04-05T15:43:37.570Z,51.20
2019-04-05T15:46:06.762Z,52.00
2019-04-05T15:48:35.929Z,52.20
2019-04-05T15:51:05.090Z,53.40
2019-04-05T15:53:34.341Z,53.80
2019-04-05T15:56:04.403Z,54.10
2019-04-05T15:58:34.667Z,55.30
2019-04-05T16:01:05.228Z,55.80
2019-04-05T16:03:37.013Z,57.30
2019-04-05T16:06:06.616Z,59.30
2019-04-05T16:08:36.252Z,60.80
2019-04-05T16:11:06.239Z,61.50
2019-04-05T16:13:35.589Z,62.40
2019-04-05T16:16:04.940Z,61.40
2019-04-05T16:18:34.209Z,62.50
2019-04-05T16:21:03.371Z,64.60
2019-04-05T16:23:32.616Z,63.30
2019-04-05T16:26:01.867Z,65.10
2019-04-05T16:28:31.092Z,64.90
2019-04-05T16:31:00.481Z,65.10
2019-04-05T16:33:29.635Z,65.40
2019-04-05T16:35:58.871Z,66.10
2019-04-05T16:38:28.058Z,65.90
2019-04-05T16:40:57.280Z,67.10
2019-04-05T16:43:26.591Z,66.60
2019-04-05T16:45:55.768Z,66.60
2019-04-05T16:48:24.948Z,67.50
2019-04-05T16:50:55.569Z,67.70
2019-04-05T16:53:24.777Z,68.10
2019-04-05T16:55:53.991Z,69.10
2019-04-05T16:58:23.146Z,68.10
2019-04-05T17:00:52.338Z,69.40
2019-04-05T17:03:21.525Z,69.90
2019-04-05T17:05:50.684Z,69.90
2019-04-05T17:08:19.941Z,71.60
2019-04-05T17:10:49.093Z,69.70
2019-04-05T17:13:18.326Z,70.90
2019-04-05T17:15:47.501Z,71.80
2019-04-05T17:18:16.663Z,71.60
2019-04-05T17:20:45.896Z,72.00
2019-04-05T17:27:03.649Z,72.60
2019-04-05T17:29:32.842Z,74.60
2019-04-05T17:32:02.082Z,75.40
2019-04-05T17:34:31.249Z,74.50
2019-04-05T17:37:00.463Z,74.00
2019-04-05T17:39:29.623Z,75.30
2019-04-05T17:41:58.772Z,75.70
2019-04-05T17:44:28.031Z,75.50
2019-04-05T17:46:57.183Z,76.50
2019-04-05T17:49:26.419Z,76.60
2019-04-05T17:51:55.633Z,76.60
2019-04-05T17:54:24.948Z,76.80
2019-04-05T17:56:54.097Z,77.30
2019-04-05T17:59:23.504Z,77.50
2019-04-05T18:01:52.668Z,78.30
2019-04-05T18:04:21.832Z,77.70
2019-04-05T18:06:51.108Z,77.30
2019-04-05T18:09:20.339Z,78.70
2019-04-05T18:11:49.610Z,78.50
2019-04-05T18:14:18.811Z,78.50
2019-04-05T18:16:48.045Z,78.00
2019-04-05T18:19:17.200Z,77.80
2019-04-05T18:21:46.399Z,78.30
2019-04-05T18:24:15.626Z,78.50
2019-04-05T18:26:44.878Z,79.10
2019-04-05T18:29:14.148Z,79.10
2019-04-05T18:31:43.379Z,79.20
2019-04-05T18:34:12.556Z,79.90
2019-04-05T18:36:41.758Z,79.60
2019-04-05T18:39:11.504Z,80.20
2019-04-05T18:41:40.667Z,80.70
2019-04-05T18:44:09.855Z,80.60
2019-04-05T18:46:39.011Z,81.30
2019-04-05T18:49:08.289Z,81.60
2019-04-05T18:51:37.518Z,81.50
2019-04-05T18:54:06.691Z,81.70
2019-04-05T18:56:35.860Z,82.10
2019-04-05T18:59:05.124Z,82.20
2019-04-05T19:01:34.453Z,82.50
2019-04-05T19:04:05.523Z,83.00
2019-04-05T19:06:34.525Z,83.80
2019-04-05T19:09:05.874Z,82.70
2019-04-05T19:11:35.094Z,83.20
2019-04-05T19:14:04.304Z,83.40
2019-04-05T19:16:33.478Z,83.60
2019-04-05T19:19:03.012Z,83.90
2019-04-05T19:21:32.603Z,84.30
2019-04-05T19:24:01.899Z,85.20
2019-04-05T19:26:31.082Z,85.10
2019-04-05T19:29:00.304Z,85.70
2019-04-05T19:49:10.461Z,89.10
2019-04-05T19:51:39.744Z,89.20
2019-04-05T19:54:08.892Z,89.50
2019-04-05T19:56:38.080Z,89.30
2019-04-05T19:59:07.323Z,89.70
2019-04-05T20:01:36.487Z,89.90
2019-04-05T20:04:05.691Z,90.30
2019-04-05T20:06:34.935Z,91.00
2019-04-05T20:09:06.507Z,90.70
2019-04-05T20:11:35.730Z,91.50
2019-04-05T20:14:05.117Z,92.00
2019-04-05T20:16:34.278Z,91.50
2019-04-05T20:19:03.525Z,91.40
2019-04-05T20:21:32.798Z,91.40
2019-04-05T20:24:13.360Z,92.20
2019-04-05T20:26:32.832Z,92.70
2019-04-05T20:29:02.040Z,93.60
2019-04-05T20:31:31.198Z,93.20
2019-04-05T20:34:00.435Z,93.10
2019-04-05T20:36:29.649Z,93.50
2019-04-05T20:38:59.022Z,93.70
2019-04-05T20:41:28.196Z,93.60
2019-04-05T20:43:57.629Z,93.40
2019-04-05T20:46:27.756Z,93.80
2019-04-05T20:48:56.939Z,94.50
2019-04-05T20:51:26.209Z,94.40
2019-04-05T20:53:55.451Z,94.50
2019-04-05T20:56:24.687Z,94.90
2019-04-05T20:58:53.892Z,95.10
2019-04-05T21:01:23.068Z,95.70
2019-04-05T21:03:52.227Z,95.70
2019-04-05T21:06:21.430Z,95.40
2019-04-05T21:08:50.596Z,95.60
2019-04-05T21:11:19.803Z,95.00
2019-04-05T21:13:48.989Z,96.10
2019-04-05T21:16:18.146Z,96.60
2019-04-05T21:18:47.492Z,96.80
2019-04-05T21:21:16.768Z,97.00
2019-04-05T21:23:46.032Z,97.20
2019-04-05T21:26:15.303Z,97.70
2019-04-05T21:28:44.585Z,97.40
2019-04-05T21:31:13.838Z,98.30
2019-04-05T21:33:43.132Z,98.20
2019-04-05T21:36:12.429Z,98.80
2019-04-05T21:38:41.709Z,99.00
2019-04-05T21:41:13.136Z,98.80
2019-04-05T21:43:41.947Z,98.80
2019-04-05T21:46:11.214Z,99.40
2019-04-05T21:48:40.476Z,99.70
2019-04-05T21:51:09.784Z,99.00
2019-04-05T21:53:39.175Z,98.50
2019-04-05T21:56:08.463Z,99.90
2019-04-05T21:58:37.840Z,99.50
2019-04-05T22:01:10.554Z,99.50
2019-04-05T22:03:39.835Z,99.90
2019-04-05T22:06:09.133Z,99.90
2019-04-05T22:08:38.412Z,99.90
2019-04-05T22:11:07.765Z,99.90
2019-04-05T22:13:37.233Z,99.90
2019-04-05T22:16:06.645Z,99.90
2019-04-05T22:18:36.387Z,99.90
2019-04-05T22:21:05.710Z,99.90
2019-04-05T22:23:35.290Z,99.90
2019-04-05T22:26:04.560Z,99.90
2019-04-05T22:28:33.984Z,99.90
2019-04-05T22:31:03.372Z,99.90
2019-04-05T22:33:32.778Z,99.90
2019-04-05T22:36:02.174Z,99.90
2019-04-05T22:38:31.582Z,99.90
2019-04-05T22:41:00.878Z,99.90
2019-04-05T22:43:30.289Z,99.90
2019-04-05T22:45:59.584Z,99.90
2019-04-05T22:48:28.920Z,99.90
2019-04-05T22:50:59.523Z,99.90
2019-04-05T22:53:29.067Z,99.90
2019-04-05T22:55:58.327Z,99.90
2019-04-05T22:58:27.938Z,99.90
2019-04-05T23:00:57.242Z,99.90
2019-04-05T23:03:26.610Z,99.90
2019-04-05T23:05:56.227Z,99.90
2019-04-05T23:08:25.549Z,99.90
2019-04-05T23:10:55.818Z,99.90
2019-04-05T23:13:25.288Z,99.90
2019-04-05T23:15:54.994Z,99.90
2019-04-05T23:18:24.503Z,99.90
2019-04-05T23:20:53.842Z,99.90
2019-04-05T23:23:23.206Z,99.90
2019-04-05T23:25:52.506Z,99.90
2019-04-05T23:28:21.825Z,99.90
2019-04-05T23:30:51.313Z,99.90
2019-04-05T23:33:20.956Z,99.90
2019-04-05T23:35:50.259Z,99.90
2019-04-05T23:38:19.527Z,99.90
2019-04-05T23:40:48.931Z,99.90
2019-04-05T23:43:18.270Z,99.90
2019-04-05T23:45:47.636Z,99.90
2019-04-05T23:48:16.938Z,99.90
2019-04-05T23:50:46.282Z,99.90
2019-04-05T23:53:15.602Z,99.90
2019-04-05T23:55:44.891Z,99.90
2019-04-05T23:58:14.352Z,99.90
